BEL16 EBOS-EBBR
Flight info
| Callsign | BEL16 |
|---|---|
| Flight time | 0h 20m |
| Altitude | 15000 |
| Route | KOK |
| Aircraft | A320/M-SDE3FGHIRWY/LB1 |
Departure
| Time | 2026-04-25 11:51 |
|---|---|
| Airport | Ostend-Bruges International Airport (EBOS) |
Arrival
| Time | 2026-04-25 12:12 |
|---|---|
| Airport | Brussels Airport (EBBR) |
| Time | Latitude | Longitude | Altitude | Speed | Heading |
|---|---|---|---|---|---|
| 2026-04-25 11:32 | 51.20322 | 2.86902 | 24 ft | 0 kts | 346° |
| 2026-04-25 11:41 | 51.20316 | 2.86904 | 23 ft | 4 kts | 346° |
| 2026-04-25 11:41 | 51.20290 | 2.86914 | 25 ft | 4 kts | 342° |
| 2026-04-25 11:41 | 51.20264 | 2.86928 | 25 ft | 4 kts | 337° |
| 2026-04-25 11:41 | 51.20248 | 2.86939 | 25 ft | 1 kts | 336° |
| 2026-04-25 11:42 | 51.20246 | 2.86941 | 24 ft | 0 kts | 336° |
| 2026-04-25 11:47 | 51.20252 | 2.86927 | 25 ft | 3 kts | 294° |
| 2026-04-25 11:47 | 51.20258 | 2.86880 | 24 ft | 8 kts | 282° |
| 2026-04-25 11:48 | 51.20261 | 2.86848 | 23 ft | 1 kts | 271° |
| 2026-04-25 11:48 | 51.20263 | 2.86829 | 23 ft | 5 kts | 284° |
| 2026-04-25 11:48 | 51.20228 | 2.86786 | 23 ft | 10 kts | 202° |
| 2026-04-25 11:48 | 51.20145 | 2.86734 | 24 ft | 16 kts | 207° |
| 2026-04-25 11:49 | 51.20048 | 2.86682 | 23 ft | 14 kts | 187° |
| 2026-04-25 11:49 | 51.19954 | 2.86668 | 23 ft | 13 kts | 185° |
| 2026-04-25 11:49 | 51.19881 | 2.86605 | 22 ft | 11 kts | 229° |
| 2026-04-25 11:49 | 51.19856 | 2.86594 | 22 ft | 2 kts | 111° |
| 2026-04-25 11:50 | 51.19857 | 2.86622 | 23 ft | 5 kts | 73° |
| 2026-04-25 11:50 | 51.19867 | 2.86676 | 24 ft | 4 kts | 75° |
| 2026-04-25 11:50 | 51.19868 | 2.86682 | 24 ft | 0 kts | 76° |
| 2026-04-25 11:50 | 51.19930 | 2.87091 | 24 ft | 88 kts | 76° |
| 2026-04-25 11:51 | 51.20146 | 2.88514 | 30 ft | 171 kts | 78° |
| 2026-04-25 11:51 | 51.20412 | 2.90435 | 866 ft | 179 kts | 76° |
| 2026-04-25 11:51 | 51.20680 | 2.92357 | 1974 ft | 173 kts | 76° |
| 2026-04-25 11:51 | 51.20956 | 2.94166 | 2834 ft | 168 kts | 74° |
| 2026-04-25 11:52 | 51.21261 | 2.95926 | 3643 ft | 162 kts | 72° |
| 2026-04-25 11:52 | 51.21604 | 2.97731 | 4086 ft | 181 kts | 73° |
| 2026-04-25 11:52 | 51.21863 | 2.99797 | 4521 ft | 199 kts | 83° |
| 2026-04-25 11:52 | 51.21921 | 3.02081 | 5045 ft | 212 kts | 89° |
| 2026-04-25 11:53 | 51.21773 | 3.04520 | 5482 ft | 233 kts | 104° |
| 2026-04-25 11:53 | 51.20877 | 3.06788 | 5894 ft | 259 kts | 142° |
| 2026-04-25 11:53 | 51.19169 | 3.07920 | 6197 ft | 276 kts | 176° |
| 2026-04-25 11:53 | 51.17306 | 3.07348 | 6375 ft | 280 kts | 213° |
| 2026-04-25 11:54 | 51.16006 | 3.05108 | 7246 ft | 278 kts | 244° |
| 2026-04-25 11:54 | 51.15272 | 3.02271 | 8254 ft | 277 kts | 252° |
| 2026-04-25 11:54 | 51.14158 | 2.97445 | 9858 ft | 282 kts | 252° |
| 2026-04-25 11:55 | 51.13479 | 2.94488 | 10604 ft | 292 kts | 252° |
| 2026-04-25 11:55 | 51.12624 | 2.91409 | 10912 ft | 318 kts | 242° |
| 2026-04-25 11:55 | 51.11184 | 2.88558 | 11198 ft | 345 kts | 221° |
| 2026-04-25 11:55 | 51.09037 | 2.86733 | 11796 ft | 359 kts | 197° |
| 2026-04-25 11:56 | 51.06540 | 2.86467 | 12554 ft | 367 kts | 172° |
| 2026-04-25 11:56 | 51.04151 | 2.87939 | 13352 ft | 373 kts | 146° |
| 2026-04-25 11:56 | 51.02364 | 2.90911 | 14137 ft | 377 kts | 121° |
| 2026-04-25 11:56 | 51.01484 | 2.94834 | 14814 ft | 381 kts | 101° |
| 2026-04-25 11:57 | 51.01055 | 2.98993 | 15121 ft | 383 kts | 97° |
| 2026-04-25 11:57 | 51.00739 | 3.03210 | 15214 ft | 391 kts | 96° |
| 2026-04-25 11:57 | 51.00460 | 3.07616 | 15231 ft | 407 kts | 95° |
| 2026-04-25 11:57 | 51.00192 | 3.11989 | 15223 ft | 390 kts | 95° |
| 2026-04-25 11:58 | 50.99932 | 3.16235 | 15227 ft | 384 kts | 95° |
| 2026-04-25 11:58 | 50.99672 | 3.20454 | 15224 ft | 387 kts | 96° |
| 2026-04-25 11:58 | 50.99348 | 3.24825 | 15220 ft | 408 kts | 97° |
| 2026-04-25 11:58 | 50.98950 | 3.29328 | 15216 ft | 414 kts | 98° |
| 2026-04-25 11:59 | 50.98513 | 3.33855 | 15212 ft | 415 kts | 98° |
| 2026-04-25 11:59 | 50.98063 | 3.38379 | 15212 ft | 415 kts | 99° |
| 2026-04-25 11:59 | 50.97616 | 3.42907 | 15206 ft | 415 kts | 98° |
| 2026-04-25 12:00 | 50.96747 | 3.51968 | 15206 ft | 415 kts | 98° |
| 2026-04-25 12:00 | 50.96320 | 3.56500 | 15209 ft | 415 kts | 98° |
| 2026-04-25 12:00 | 50.95469 | 3.65561 | 15192 ft | 414 kts | 98° |
| 2026-04-25 12:01 | 50.95044 | 3.70032 | 14600 ft | 409 kts | 98° |
| 2026-04-25 12:01 | 50.94618 | 3.74476 | 13960 ft | 406 kts | 98° |
| 2026-04-25 12:01 | 50.94195 | 3.78889 | 13287 ft | 403 kts | 98° |
| 2026-04-25 12:01 | 50.93775 | 3.83264 | 12625 ft | 399 kts | 98° |
| 2026-04-25 12:02 | 50.92940 | 3.91877 | 11293 ft | 392 kts | 98° |
| 2026-04-25 12:02 | 50.92527 | 3.96092 | 10986 ft | 379 kts | 98° |
| 2026-04-25 12:02 | 50.92127 | 4.00126 | 10858 ft | 362 kts | 98° |
| 2026-04-25 12:03 | 50.91744 | 4.03977 | 10733 ft | 346 kts | 97° |
| 2026-04-25 12:03 | 50.91330 | 4.07657 | 10609 ft | 333 kts | 104° |
| 2026-04-25 12:03 | 50.90408 | 4.10935 | 10492 ft | 321 kts | 123° |
| 2026-04-25 12:03 | 50.88951 | 4.13513 | 10308 ft | 311 kts | 142° |
| 2026-04-25 12:04 | 50.87116 | 4.15223 | 10202 ft | 305 kts | 160° |
| 2026-04-25 12:04 | 50.85072 | 4.16188 | 9676 ft | 310 kts | 167° |
| 2026-04-25 12:04 | 50.83002 | 4.17009 | 9392 ft | 304 kts | 168° |
| 2026-04-25 12:04 | 50.80954 | 4.17801 | 8980 ft | 302 kts | 168° |
| 2026-04-25 12:05 | 50.78919 | 4.18583 | 8592 ft | 300 kts | 167° |
| 2026-04-25 12:05 | 50.76933 | 4.19348 | 8439 ft | 284 kts | 167° |
| 2026-04-25 12:05 | 50.75087 | 4.20063 | 8261 ft | 265 kts | 167° |
| 2026-04-25 12:05 | 50.73328 | 4.20750 | 7824 ft | 257 kts | 167° |
| 2026-04-25 12:06 | 50.71603 | 4.21433 | 7309 ft | 253 kts | 165° |
| 2026-04-25 12:06 | 50.70080 | 4.22737 | 6769 ft | 250 kts | 134° |
| 2026-04-25 12:06 | 50.69195 | 4.25031 | 6231 ft | 245 kts | 103° |
| 2026-04-25 12:06 | 50.69149 | 4.27656 | 5666 ft | 239 kts | 75° |
| 2026-04-25 12:07 | 50.69543 | 4.30207 | 5113 ft | 239 kts | 75° |
| 2026-04-25 12:07 | 50.69944 | 4.32730 | 4543 ft | 236 kts | 73° |
| 2026-04-25 12:07 | 50.70340 | 4.35201 | 4102 ft | 233 kts | 75° |
| 2026-04-25 12:07 | 50.70732 | 4.37658 | 3908 ft | 231 kts | 74° |
| 2026-04-25 12:08 | 50.71191 | 4.40111 | 3794 ft | 230 kts | 62° |
| 2026-04-25 12:08 | 50.72158 | 4.42032 | 3428 ft | 228 kts | 34° |
| 2026-04-25 12:08 | 50.73587 | 4.42987 | 2997 ft | 219 kts | 12° |
| 2026-04-25 12:08 | 50.75075 | 4.43564 | 2897 ft | 223 kts | 15° |
| 2026-04-25 12:09 | 50.76573 | 4.44203 | 2671 ft | 223 kts | 15° |
| 2026-04-25 12:09 | 50.78072 | 4.44821 | 2389 ft | 221 kts | 15° |
| 2026-04-25 12:09 | 50.79574 | 4.45432 | 2088 ft | 218 kts | 14° |
| 2026-04-25 12:09 | 50.81014 | 4.46017 | 1785 ft | 213 kts | 14° |
| 2026-04-25 12:10 | 50.82398 | 4.46579 | 1511 ft | 198 kts | 14° |
| 2026-04-25 12:10 | 50.83685 | 4.47102 | 1254 ft | 184 kts | 14° |
| 2026-04-25 12:10 | 50.84880 | 4.47589 | 1038 ft | 170 kts | 14° |
| 2026-04-25 12:10 | 50.85977 | 4.48035 | 800 ft | 154 kts | 14° |
| 2026-04-25 12:11 | 50.86989 | 4.48447 | 591 ft | 156 kts | 14° |
| 2026-04-25 12:11 | 50.88024 | 4.48869 | 375 ft | 148 kts | 14° |
| 2026-04-25 12:11 | 50.88979 | 4.49255 | 221 ft | 133 kts | 13° |
| 2026-04-25 12:11 | 50.89801 | 4.49580 | 145 ft | 104 kts | 15° |
| 2026-04-25 12:12 | 50.90222 | 4.49756 | 130 ft | 37 kts | 6° |
| 2026-04-25 12:12 | 50.90389 | 4.49817 | 125 ft | 36 kts | 15° |
| 2026-04-25 12:12 | 50.90650 | 4.49921 | 122 ft | 23 kts | 8° |
| 2026-04-25 12:12 | 50.90818 | 4.49902 | 121 ft | 16 kts | 343° |
| 2026-04-25 12:13 | 50.90846 | 4.49770 | 123 ft | 17 kts | 245° |
| 2026-04-25 12:13 | 50.90792 | 4.49581 | 122 ft | 21 kts | 245° |
| 2026-04-25 12:13 | 50.90726 | 4.49356 | 123 ft | 24 kts | 245° |
| 2026-04-25 12:13 | 50.90654 | 4.49105 | 118 ft | 24 kts | 245° |
| 2026-04-25 12:14 | 50.90597 | 4.48913 | 120 ft | 11 kts | 238° |
| 2026-04-25 12:14 | 50.90540 | 4.48936 | 118 ft | 6 kts | 148° |
| 2026-04-25 12:14 | 50.90512 | 4.48954 | 118 ft | 0 kts | 157° |